Time;durP1;ratioP1;P1;durP2;ratioP2;P2;SDS_P1;SDS_P2;PMS_P1;PMS_P2;Temp;Humidity;BMP_temperature;BMP_pressure;BME280_temperature;BME280_humidity;BME280_pressure;Samples;Min_cycle;Max_cycle;Signal;HPM_P1;HPM_P2
2021/04/09 00:00:32;;;;;;;11.23;6.30;;;3.40;75.00;;;2.90;76.29;98479.25;5062946;28;20656;-66
2021/04/09 00:02:59;;;;;;;10.83;6.37;;;3.40;75.10;;;2.87;76.30;98474.22;5068574;28;21193;-66
2021/04/09 00:05:30;;;;;;;9.50;5.97;;;3.30;75.00;;;2.89;76.47;98475.88;5066415;28;20975;-66
2021/04/09 00:08:01;;;;;;;10.53;6.47;;;3.40;75.10;;;2.86;76.44;98478.53;5066057;28;20642;-66
2021/04/09 00:10:29;;;;;;;10.60;5.73;;;3.40;75.30;;;2.85;76.43;98481.97;5068981;28;20643;-66
2021/04/09 00:12:57;;;;;;;11.13;6.30;;;3.30;75.10;;;2.81;76.33;98482.13;5068856;28;21418;-66
2021/04/09 00:15:27;;;;;;;9.53;6.30;;;3.30;75.30;;;2.80;76.21;98480.47;5065853;28;20639;-66
2021/04/09 00:17:57;;;;;;;10.37;6.13;;;3.30;75.10;;;2.80;76.51;98475.31;5067880;28;20997;-66
2021/04/09 00:20:26;;;;;;;10.67;6.10;;;3.30;75.30;;;2.78;76.49;98471.94;5075979;28;20638;-66
2021/04/09 00:22:54;;;;;;;11.80;5.90;;;3.30;75.30;;;2.76;77.00;98471.16;5063479;28;20623;-66
2021/04/09 00:25:23;;;;;;;9.83;6.17;;;3.20;75.30;;;2.71;76.81;98467.88;5065246;28;20639;-66
2021/04/09 00:27:53;;;;;;;7.73;5.70;;;3.20;75.50;;;2.69;76.97;98469.69;5064221;28;21152;-66
2021/04/09 00:30:27;;;;;;;8.57;6.40;;;3.20;75.70;;;2.70;76.78;98467.94;5069726;28;21006;-66
2021/04/09 00:32:56;;;;;;;9.43;5.80;;;3.20;75.60;;;2.70;76.64;98466.19;5066044;28;21006;-66
2021/04/09 00:35:23;;;;;;;7.70;5.13;;;3.20;75.60;;;2.68;76.76;98467.97;5066628;28;20661;-66
2021/04/09 00:37:53;;;;;;;9.43;6.23;;;3.20;75.60;;;2.63;76.57;98464.72;5068207;28;20717;-66
2021/04/09 00:40:22;;;;;;;8.57;6.60;;;3.10;75.70;;;2.66;76.96;98458.63;5066389;28;21255;-66
2021/04/09 00:42:50;;;;;;;9.37;6.40;;;3.20;75.80;;;2.62;76.88;98468.16;5065286;28;20642;-66
2021/04/09 00:45:19;;;;;;;9.90;6.40;;;3.10;75.80;;;2.63;76.82;98459.56;5070247;28;20750;-66
2021/04/09 00:47:47;;;;;;;8.90;6.10;;;3.10;76.10;;;2.60;77.09;98463.94;5069420;28;20969;-66
2021/04/09 00:50:16;;;;;;;9.90;6.67;;;3.10;76.00;;;2.59;76.71;98457.16;5060700;28;20643;-66
2021/04/09 00:52:51;;;;;;;11.83;5.90;;;3.10;76.20;;;2.59;77.17;98459.72;5069856;28;20643;-66
2021/04/09 00:55:21;;;;;;;10.77;6.10;;;3.10;76.40;;;2.57;77.49;98458.91;5064718;28;20644;-66
2021/04/09 00:57:51;;;;;;;8.73;6.23;;;3.10;76.40;;;2.56;76.93;98452.91;5066814;28;21240;-66
2021/04/09 01:00:20;;;;;;;10.23;6.07;;;3.10;76.50;;;2.56;77.18;98452.09;5065080;28;20743;-66
2021/04/09 01:02:48;;;;;;;8.87;6.40;;;3.10;76.60;;;2.55;77.42;98442.66;5070539;28;20650;-66
2021/04/09 01:05:18;;;;;;;10.57;5.93;;;3.00;76.50;;;2.52;76.83;98446.16;5063133;28;21176;-66
2021/04/09 01:07:47;;;;;;;9.13;6.30;;;3.00;76.80;;;2.51;77.01;98436.78;5068447;28;20650;-66
2021/04/09 01:10:17;;;;;;;9.63;6.50;;;3.00;76.40;;;2.52;77.24;98443.59;5059932;28;21217;-66
2021/04/09 01:12:47;;;;;;;11.00;6.60;;;3.00;76.40;;;2.50;77.19;98442.81;5067244;28;20637;-66
2021/04/09 01:15:16;;;;;;;9.80;6.60;;;3.00;76.40;;;2.46;77.28;98443.78;5068394;28;20638;-66
2021/04/09 01:17:53;;;;;;;10.53;6.43;;;3.00;76.80;;;2.46;76.97;98436.06;5064340;28;20651;-66
2021/04/09 01:20:57;;;;;;;10.87;6.47;;;3.00;76.50;;;2.40;77.41;98435.44;5084931;28;20635;-66
2021/04/09 01:23:55;;;;;;;8.13;6.40;;;2.90;76.50;;;2.37;76.94;98440.66;5064065;28;20635;-66
2021/04/09 01:27:26;;;;;;;11.27;6.43;;;2.90;76.60;;;2.33;77.65;98428.81;5063461;28;20666;-66
2021/04/09 01:30:26;;;;;;;10.17;6.10;;;2.80;76.80;;;2.28;77.20;98425.50;5067267;28;20698;-66
2021/04/09 01:32:56;;;;;;;10.47;6.80;;;2.80;76.80;;;2.24;77.74;98423.06;5061814;28;20640;-66
2021/04/09 01:35:26;;;;;;;11.37;6.50;;;2.80;77.10;;;2.22;77.63;98425.69;5070984;28;20682;-66
2021/04/09 01:38:00;;;;;;;16.40;6.23;;;2.70;77.00;;;2.18;77.90;98423.25;5062462;28;20682;-66
2021/04/09 01:40:33;;;;;;;9.30;5.93;;;2.70;77.20;;;2.17;78.34;98419.03;5069176;28;20641;-66
2021/04/09 01:43:06;;;;;;;8.47;5.93;;;2.70;77.50;;;2.15;77.36;98413.94;5065494;28;20638;-66
2021/04/09 01:45:35;;;;;;;9.27;6.30;;;2.60;77.20;;;2.12;77.86;98428.59;5066882;28;20694;-66
2021/04/09 01:48:08;;;;;;;9.70;6.53;;;2.60;77.60;;;2.11;78.48;98429.50;5068138;28;20632;-66
2021/04/09 01:50:37;;;;;;;9.77;6.23;;;2.60;78.30;;;2.06;77.99;98426.19;5061345;28;20674;-66
2021/04/09 01:53:07;;;;;;;9.93;6.37;;;2.60;77.60;;;2.03;78.18;98418.56;5068564;28;20657;-66
2021/04/09 01:55:42;;;;;;;7.70;5.70;;;2.50;77.40;;;2.00;77.67;98419.53;5067150;28;21071;-66
2021/04/09 01:58:11;;;;;;;10.43;6.00;;;2.50;78.40;;;1.98;77.83;98413.56;5064121;28;20717;-66
2021/04/09 02:00:40;;;;;;;6.67;5.80;;;2.50;78.50;;;1.97;78.00;98411.03;5068095;28;20651;-66
2021/04/09 02:03:10;;;;;;;9.50;6.03;;;2.50;78.00;;;1.96;78.33;98412.78;5065185;28;20656;-66
2021/04/09 02:05:40;;;;;;;10.87;5.97;;;2.50;78.20;;;1.96;78.38;98410.22;5064519;28;20639;-66
2021/04/09 02:08:11;;;;;;;10.03;6.30;;;2.50;78.30;;;1.95;78.04;98405.94;5066025;28;20643;-66
2021/04/09 02:10:39;;;;;;;9.60;6.00;;;2.50;78.80;;;1.91;78.12;98404.38;5056592;28;20984;-66
2021/04/09 02:13:08;;;;;;;9.33;6.23;;;2.40;78.40;;;1.89;78.13;98402.72;5064610;28;20630;-65
2021/04/09 02:15:36;;;;;;;7.40;6.17;;;2.40;78.80;;;1.89;78.32;98398.44;5064934;28;20994;-65
2021/04/09 02:18:04;;;;;;;11.20;6.40;;;2.40;79.10;;;1.90;79.02;98396.72;5064358;28;20659;-65
2021/04/09 02:20:32;;;;;;;7.17;5.63;;;2.40;78.80;;;1.90;78.74;98396.72;5066356;28;20643;-65
2021/04/09 02:23:00;;;;;;;12.37;6.80;;;2.40;79.00;;;1.93;78.78;98401.75;5065773;28;20627;-66
2021/04/09 02:25:28;;;;;;;9.03;6.13;;;2.40;79.50;;;1.91;78.38;98394.09;5065308;28;20644;-66
2021/04/09 02:27:55;;;;;;;8.80;5.77;;;2.40;79.50;;;1.91;78.71;98393.25;5057584;28;20653;-66
2021/04/09 02:30:24;;;;;;;9.63;6.13;;;2.40;79.70;;;1.89;78.59;98390.72;5065779;28;21063;-66
2021/04/09 02:32:52;;;;;;;9.90;6.33;;;2.40;79.70;;;1.88;78.51;98393.34;5063365;28;20706;-66
2021/04/09 02:35:21;;;;;;;13.20;6.60;;;2.40;79.50;;;1.87;78.55;98392.47;5080909;28;20663;-66
2021/04/09 02:37:54;;;;;;;9.10;6.80;;;2.40;79.70;;;1.87;78.66;98391.66;5064677;28;20647;-66
2021/04/09 02:40:27;;;;;;;8.50;6.10;;;2.30;79.70;;;1.87;78.63;98387.34;5062815;28;20651;-66
2021/04/09 02:42:55;;;;;;;9.40;6.30;;;2.30;79.70;;;1.87;79.12;98385.69;5062821;28;21732;-66
2021/04/09 02:45:25;;;;;;;12.33;5.77;;;2.30;79.70;;;1.85;79.26;98378.00;5064139;28;20665;-66
2021/04/09 02:47:56;;;;;;;8.13;6.30;;;2.30;80.10;;;1.86;79.33;98379.69;5067042;28;20641;-66
2021/04/09 02:50:31;;;;;;;8.07;6.83;;;2.40;80.30;;;1.88;78.74;98377.94;5066551;28;20634;-65
2021/04/09 02:53:05;;;;;;;11.40;6.77;;;2.40;80.20;;;1.85;78.89;98378.00;5069527;28;20636;-65
2021/04/09 02:55:39;;;;;;;10.70;6.73;;;2.40;79.50;;;1.83;78.85;98371.22;5068996;28;21233;-65
2021/04/09 02:58:07;;;;;;;9.33;6.13;;;2.30;79.80;;;1.82;79.19;98370.41;5062912;28;20666;-65
2021/04/09 03:00:37;;;;;;;9.70;6.17;;;2.30;79.90;;;1.81;79.26;98367.88;5065249;28;20654;-65
2021/04/09 03:03:07;;;;;;;10.00;6.87;;;2.30;80.00;;;1.82;78.79;98366.97;5063331;28;20640;-65
2021/04/09 03:05:35;;;;;;;10.50;6.30;;;2.30;79.40;;;1.82;79.13;98361.81;5061619;28;21073;-65
2021/04/09 03:08:05;;;;;;;7.80;5.90;;;2.30;79.40;;;1.81;79.10;98366.13;5064490;28;21189;-65
2021/04/09 03:10:33;;;;;;;12.50;6.60;;;2.30;79.90;;;1.81;78.76;98366.13;5065250;28;20639;-65
2021/04/09 03:13:03;;;;;;;11.67;7.00;;;2.30;80.00;;;1.81;78.99;98360.16;5062344;28;21171;-65
2021/04/09 03:15:38;;;;;;;10.10;6.37;;;2.30;80.10;;;1.79;78.59;98367.91;5067744;28;20640;-65
2021/04/09 03:18:10;;;;;;;10.70;6.30;;;2.30;79.90;;;1.77;78.65;98361.13;5063357;28;20660;-66
2021/04/09 03:20:38;;;;;;;11.40;6.50;;;2.30;80.10;;;1.75;78.76;98357.78;5065477;28;20632;-66
2021/04/09 03:23:07;;;;;;;11.37;7.60;;;2.30;79.70;;;1.74;78.80;98354.34;5062476;28;20643;-66
2021/04/09 03:25:36;;;;;;;11.10;6.30;;;2.30;80.40;;;1.73;78.85;98356.94;5067964;28;20646;-64
2021/04/09 03:28:05;;;;;;;9.27;6.43;;;2.20;80.40;;;1.72;79.38;98350.16;5063116;28;20690;-64
2021/04/09 03:30:33;;;;;;;8.23;6.10;;;2.20;80.40;;;1.71;79.19;98346.72;5066598;28;20699;-64
2021/04/09 03:33:01;;;;;;;11.27;7.00;;;2.20;81.20;;;1.69;79.56;98351.06;5078110;28;20735;-64
2021/04/09 03:35:29;;;;;;;13.20;6.90;;;2.20;80.60;;;1.71;79.52;98346.72;5069533;28;20766;-64
2021/04/09 03:37:56;;;;;;;9.07;6.10;;;2.20;80.70;;;1.69;79.38;98339.97;5067463;28;20656;-64
2021/04/09 03:40:25;;;;;;;12.05;6.90;;;2.20;80.50;;;1.71;79.20;98343.31;5065644;28;20750;-64
2021/04/09 03:42:52;;;;;;;8.53;5.93;;;2.20;80.50;;;1.68;79.17;98333.97;5064040;28;20217;-64
2021/04/09 03:45:20;;;;;;;10.03;6.10;;;2.20;80.70;;;1.66;79.15;98333.16;5060263;28;21047;-66
2021/04/09 03:47:48;;;;;;;14.13;7.17;;;2.20;80.20;;;1.65;79.17;98336.63;5058954;28;21160;-66
2021/04/09 03:50:16;;;;;;;12.43;6.77;;;2.20;80.20;;;1.64;78.97;98352.94;5063935;28;20635;-67
2021/04/09 03:52:44;;;;;;;8.03;6.60;;;2.20;80.70;;;1.61;79.22;98342.75;5062753;28;21172;-64
2021/04/09 03:55:14;;;;;;;13.20;7.60;;;2.20;80.70;;;1.60;79.64;98335.91;5068307;28;20635;-64
2021/04/09 03:57:43;;;;;;;9.87;6.80;;;2.10;80.80;;;1.63;79.62;98351.25;5067375;28;20659;-64
2021/04/09 04:00:12;;;;;;;9.03;6.40;;;2.10;80.80;;;1.63;79.70;98351.25;5070500;28;20650;-64
2021/04/09 04:02:40;;;;;;;9.23;6.47;;;2.20;80.70;;;1.64;79.04;98346.94;5064357;28;20632;-64
2021/04/09 04:05:10;;;;;;;11.83;7.03;;;2.10;80.50;;;1.64;78.81;98334.97;5067036;28;21102;-64
2021/04/09 04:07:37;;;;;;;12.10;7.07;;;2.10;80.60;;;1.64;79.43;98347.81;5078604;28;20960;-64
2021/04/09 04:10:07;;;;;;;13.80;7.07;;;2.10;80.00;;;1.64;79.42;98346.94;5072691;28;21068;-64
2021/04/09 04:12:35;;;;;;;11.97;7.33;;;2.20;80.70;;;1.64;79.23;98339.22;5064741;28;21174;-64
2021/04/09 04:15:06;;;;;;;13.47;8.17;;;2.10;80.60;;;1.65;79.21;98343.50;5068573;28;20652;-64
2021/04/09 04:17:34;;;;;;;12.40;7.40;;;2.20;80.70;;;1.64;79.39;98339.22;5066743;28;20656;-64
2021/04/09 04:20:05;;;;;;;10.97;7.00;;;2.20;80.90;;;1.66;79.40;98340.06;5065835;28;20635;-64
2021/04/09 04:22:33;;;;;;;13.83;7.30;;;2.10;80.60;;;1.64;79.03;98337.53;5066101;28;21165;-64
2021/04/09 04:25:01;;;;;;;12.13;7.80;;;2.20;81.30;;;1.62;79.24;98339.28;5064797;28;20646;-66
2021/04/09 04:27:30;;;;;;;11.40;7.40;;;2.10;80.50;;;1.62;79.23;98341.84;5064385;28;20634;-67
2021/04/09 04:29:57;;;;;;;12.60;6.70;;;2.20;81.00;;;1.64;79.35;98342.66;5065038;28;20631;-67
2021/04/09 04:32:26;;;;;;;9.90;6.87;;;2.20;81.90;;;1.67;79.00;98347.72;5069245;28;20631;-67
2021/04/09 04:34:53;;;;;;;12.90;7.77;;;2.20;81.00;;;1.68;79.71;98345.97;5066991;28;20678;-67
2021/04/09 04:37:21;;;;;;;12.67;8.27;;;2.20;81.00;;;1.69;79.46;98351.06;5072844;28;20651;-65
2021/04/09 04:39:49;;;;;;;11.90;7.87;;;2.20;80.50;;;1.69;79.24;98355.38;5065969;28;20639;-65
2021/04/09 04:42:18;;;;;;;12.43;7.87;;;2.20;81.00;;;1.68;79.47;98349.38;5070043;28;20643;-65
2021/04/09 04:44:45;;;;;;;11.00;7.70;;;2.20;80.60;;;1.68;79.27;98348.53;5067738;28;20635;-65
2021/04/09 04:47:13;;;;;;;13.30;7.50;;;2.20;80.90;;;1.68;79.50;98346.81;5063092;28;20727;-66
2021/04/09 04:49:41;;;;;;;14.00;7.90;;;2.20;81.60;;;1.72;79.43;98353.56;5063932;28;20696;-66
2021/04/09 04:52:09;;;;;;;13.70;8.00;;;2.20;81.70;;;1.71;79.02;98344.16;5069363;28;20994;-65
2021/04/09 04:54:40;;;;;;;11.50;7.40;;;2.20;80.40;;;1.70;79.31;98342.47;5066866;28;20644;-65
2021/04/09 04:57:09;;;;;;;12.40;7.63;;;2.20;80.60;;;1.74;78.99;98344.06;5071224;28;20659;-65
2021/04/09 04:59:36;;;;;;;11.77;7.90;;;2.20;80.50;;;1.74;78.72;98346.63;5068720;28;21186;-64
2021/04/09 05:02:04;;;;;;;9.27;6.93;;;2.30;80.60;;;1.76;78.59;98342.31;5068290;28;20644;-65
2021/04/09 05:04:32;;;;;;;13.30;8.30;;;2.30;80.70;;;1.79;79.27;98341.34;5066763;28;20738;-65
2021/04/09 05:07:02;;;;;;;10.30;7.23;;;2.30;80.70;;;1.84;79.12;98345.47;5069277;28;21380;-65
2021/04/09 05:09:30;;;;;;;11.07;7.30;;;2.30;80.60;;;1.83;79.27;98346.34;5065463;28;20654;-65
2021/04/09 05:11:58;;;;;;;12.33;7.20;;;2.30;80.70;;;1.87;78.83;98347.13;5069230;28;20672;-65
2021/04/09 05:14:25;;;;;;;10.63;7.57;;;2.40;80.90;;;1.91;78.77;98354.69;5064155;28;20980;-65
2021/04/09 05:16:53;;;;;;;12.07;6.80;;;2.40;80.00;;;1.92;79.11;98349.50;5066345;28;20663;-65
2021/04/09 05:19:21;;;;;;;10.57;7.27;;;2.40;80.50;;;1.94;79.10;98352.03;5060403;28;21075;-65
2021/04/09 05:21:48;;;;;;;8.97;6.80;;;2.40;80.70;;;2.05;79.06;98355.94;5064781;28;20633;-65
2021/04/09 05:24:17;;;;;;;14.07;8.37;;;2.50;80.90;;;2.24;78.83;98357.06;5065970;28;20639;-65
2021/04/09 05:26:45;;;;;;;12.70;8.00;;;2.60;81.20;;;2.40;78.50;98356.50;5065434;28;20642;-65
2021/04/09 05:29:13;;;;;;;11.80;7.40;;;2.80;81.30;;;2.57;78.26;98354.25;5062686;28;20632;-65
2021/04/09 05:31:41;;;;;;;11.40;7.87;;;2.90;80.50;;;2.74;77.94;98351.94;5068379;28;20634;-65
2021/04/09 05:34:11;;;;;;;11.13;8.00;;;3.10;80.10;;;2.97;77.34;98346.84;5069326;28;21179;-66
2021/04/09 05:36:42;;;;;;;10.97;7.73;;;3.30;79.50;;;3.20;76.16;98349.47;5066518;28;20726;-64
2021/04/09 05:39:09;;;;;;;18.47;7.60;;;3.50;78.60;;;3.54;75.88;98351.59;5063819;28;20681;-64
2021/04/09 05:41:38;;;;;;;8.70;6.57;;;3.70;77.90;;;3.97;74.60;98343.94;5062689;28;20730;-64
2021/04/09 05:44:06;;;;;;;12.60;7.30;;;4.10;76.60;;;4.29;72.89;98347.78;5067801;28;20697;-64
2021/04/09 05:46:34;;;;;;;10.90;7.73;;;4.40;75.20;;;4.52;72.63;98342.53;5063122;28;20644;-64
2021/04/09 05:49:03;;;;;;;14.33;8.23;;;4.60;73.60;;;4.65;70.98;98346.31;5058993;28;20640;-64
2021/04/09 05:51:31;;;;;;;13.07;7.57;;;4.80;72.60;;;4.69;72.13;98340.97;5060714;28;20639;-64
2021/04/09 05:53:58;;;;;;;12.60;8.17;;;4.90;72.60;;;4.87;70.93;98339.34;5067898;28;20641;-64
2021/04/09 05:56:26;;;;;;;11.50;7.67;;;5.00;72.10;;;5.00;70.44;98336.16;5066512;28;20640;-64
2021/04/09 05:58:55;;;;;;;10.87;7.90;;;5.20;70.80;;;5.15;70.15;98333.75;5066805;28;20672;-64
2021/04/09 06:01:23;;;;;;;11.40;8.33;;;5.30;70.00;;;5.27;70.13;98332.41;5064503;28;20978;-64
2021/04/09 06:03:51;;;;;;;10.50;7.13;;;5.40;69.70;;;5.35;68.99;98328.59;5065976;28;20664;-64
2021/04/09 06:06:19;;;;;;;13.47;8.47;;;5.50;69.20;;;5.56;69.33;98339.72;5061554;28;20632;-64
2021/04/09 06:08:48;;;;;;;12.20;8.03;;;5.70;69.70;;;5.72;69.67;98338.97;5065367;28;20627;-64
2021/04/09 06:11:16;;;;;;;9.20;6.97;;;5.80;69.00;;;5.86;68.26;98336.59;5060522;28;20620;-64
2021/04/09 06:13:44;;;;;;;10.10;7.73;;;6.00;69.10;;;5.95;68.54;98331.00;5067804;28;20627;-64
2021/04/09 06:16:13;;;;;;;11.97;7.57;;;6.10;67.90;;;6.04;68.65;98331.41;5065281;28;20651;-64
2021/04/09 06:18:41;;;;;;;12.87;6.90;;;6.20;68.30;;;6.26;67.62;98335.50;5065856;28;20664;-64
2021/04/09 06:21:08;;;;;;;9.07;6.70;;;6.40;67.70;;;6.45;67.19;98330.28;5063561;28;20620;-64
2021/04/09 06:23:36;;;;;;;9.60;6.80;;;6.50;67.30;;;6.60;67.91;98323.47;5066304;28;20753;-64
2021/04/09 06:26:04;;;;;;;8.50;6.40;;;6.70;67.50;;;6.74;66.97;98313.25;5063128;28;20623;-64
2021/04/09 06:28:33;;;;;;;11.37;6.53;;;6.80;66.60;;;6.90;66.97;98311.59;5065795;28;20638;-66
2021/04/09 06:31:01;;;;;;;11.13;7.17;;;6.90;66.60;;;7.13;65.39;98324.22;5062170;28;20635;-65
2021/04/09 06:33:46;;;;;;;11.00;7.10;;;7.10;65.20;;;7.30;65.77;98311.22;5061346;28;20632;-64
2021/04/09 06:36:13;;;;;;;7.73;5.90;;;7.30;64.60;;;7.35;65.36;98314.41;5066147;28;21227;-64
2021/04/09 06:38:41;;;;;;;8.80;7.00;;;7.40;63.80;;;7.45;64.98;98313.84;5067473;28;20664;-63
2021/04/09 06:41:10;;;;;;;13.83;9.33;;;7.50;64.90;;;7.69;64.47;98309.94;5063367;28;20636;-64
2021/04/09 06:43:38;;;;;;;9.70;7.50;;;7.70;64.30;;;7.97;65.73;98310.97;5064718;28;20628;-65
2021/04/09 06:46:06;;;;;;;10.90;7.50;;;7.90;64.40;;;8.27;63.94;98315.34;5061621;28;21169;-66
2021/04/09 06:48:34;;;;;;;9.27;7.60;;;8.20;64.20;;;8.37;63.22;98324.28;5065605;28;21199;-66
2021/04/09 06:51:03;;;;;;;10.47;7.83;;;8.40;62.60;;;8.49;64.52;98321.00;5081982;28;20640;-66
2021/04/09 06:53:32;;;;;;;9.80;8.30;;;8.50;62.50;;;8.75;64.25;98321.22;5064534;28;20689;-65
2021/04/09 06:56:00;;;;;;;13.50;8.63;;;8.70;63.30;;;9.05;63.16;98319.41;5065226;28;20639;-66
2021/04/09 06:58:31;;;;;;;11.00;6.90;;;9.00;62.50;;;9.23;62.18;98321.78;5060247;28;20663;-66
2021/04/09 07:01:01;;;;;;;9.00;7.67;;;9.20;60.70;;;9.38;61.89;98315.66;5065934;28;20658;-66
2021/04/09 07:03:28;;;;;;;11.47;7.40;;;9.40;60.10;;;9.45;60.44;98303.94;5064069;28;20649;-65
2021/04/09 07:05:56;;;;;;;8.43;7.17;;;9.40;58.20;;;9.63;63.95;98308.03;5060365;28;20659;-65
2021/04/09 07:08:27;;;;;;;9.00;7.47;;;9.50;61.10;;;9.82;63.29;98303.38;5066949;28;21013;-66
2021/04/09 07:10:54;;;;;;;15.00;8.83;;;9.80;61.50;;;9.98;62.82;98302.34;5063938;28;20628;-66
2021/04/09 07:13:22;;;;;;;13.30;8.07;;;9.90;60.80;;;10.21;62.85;98296.53;5064755;28;20635;-66
2021/04/09 07:15:51;;;;;;;9.40;8.43;;;10.10;59.70;;;10.48;62.04;98298.22;5060465;28;20640;-67
2021/04/09 07:18:19;;;;;;;10.83;8.67;;;10.40;59.90;;;10.75;61.70;98293.78;5068162;28;21098;-66
2021/04/09 07:20:47;;;;;;;14.87;8.93;;;10.60;59.40;;;10.91;61.48;98298.72;5066583;28;20653;-65
2021/04/09 07:23:18;;;;;;;9.43;8.37;;;10.80;59.20;;;11.02;59.69;98290.19;5061147;28;20725;-65
2021/04/09 07:25:46;;;;;;;12.87;9.10;;;11.00;57.60;;;11.15;59.55;98296.28;5071202;28;20635;-65
2021/04/09 07:28:17;;;;;;;10.93;8.60;;;11.10;56.20;;;11.16;58.82;98293.56;5070098;28;20809;-65
2021/04/09 07:30:50;;;;;;;10.07;8.00;;;11.10;55.80;;;11.27;59.29;98293.66;5067624;28;21019;-65
2021/04/09 07:33:20;;;;;;;9.93;8.20;;;11.20;55.90;;;11.29;58.29;98291.81;5068462;28;20766;-65
2021/04/09 07:35:50;;;;;;;9.80;8.00;;;11.20;55.30;;;11.28;59.53;98293.56;5067521;28;20685;-65
2021/04/09 07:38:24;;;;;;;13.93;8.00;;;11.20;55.70;;;11.37;58.70;98286.88;5068823;28;21321;-65
2021/04/09 07:41:00;;;;;;;7.90;6.60;;;11.30;55.30;;;11.56;57.90;98285.56;5066940;28;20640;-65
2021/04/09 07:43:29;;;;;;;8.43;7.57;;;11.50;55.30;;;11.89;58.46;98286.66;5065521;28;21162;-65
2021/04/09 07:46:00;;;;;;;10.00;7.43;;;11.70;55.20;;;12.17;57.70;98278.50;5073194;28;20677;-65
2021/04/09 07:48:33;;;;;;;18.50;9.60;;;12.00;56.00;;;12.46;56.88;98274.63;5067203;28;20627;-65
2021/04/09 07:51:01;;;;;;;8.00;7.00;;;12.30;53.20;;;12.73;55.76;98279.50;5067708;28;20639;-65
2021/04/09 07:53:41;;;;;;;12.33;7.57;;;12.60;53.00;;;12.91;53.34;98287.81;5072896;28;20635;-65
2021/04/09 07:56:12;;;;;;;10.43;8.10;;;12.80;50.60;;;12.96;53.54;98288.28;5064293;28;20672;-65
2021/04/09 07:58:43;;;;;;;11.27;7.80;;;12.90;51.00;;;13.06;53.57;98274.38;5064546;28;21214;-65
2021/04/09 08:01:22;;;;;;;11.30;8.27;;;13.00;51.20;;;13.16;53.10;98272.75;5065186;28;20646;-65
2021/04/09 08:03:50;;;;;;;10.07;7.80;;;13.10;50.00;;;13.48;53.10;98268.50;5070384;28;20627;-65
2021/04/09 08:06:20;;;;;;;8.50;6.20;;;13.40;50.70;;;13.67;52.24;98267.81;5068663;28;20643;-65
2021/04/09 08:08:58;;;;;;;8.43;6.23;;;13.60;49.00;;;13.85;50.01;98265.53;5067051;28;20641;-65
2021/04/09 08:11:30;;;;;;;8.23;6.90;;;13.80;46.40;;;14.02;51.72;98263.25;5066464;28;20650;-65
2021/04/09 08:14:08;;;;;;;9.27;7.17;;;13.90;47.70;;;14.19;50.98;98257.53;5066307;28;20697;-65
2021/04/09 08:16:39;;;;;;;6.47;5.60;;;14.10;47.20;;;14.36;51.56;98257.84;5071058;28;20653;-65
2021/04/09 08:19:13;;;;;;;7.00;5.50;;;14.30;46.80;;;14.63;49.98;98256.44;5065926;28;21181;-65
2021/04/09 08:21:49;;;;;;;7.90;5.60;;;14.50;46.00;;;14.90;49.21;98256.78;5069899;28;20648;-65
2021/04/09 08:24:22;;;;;;;6.67;5.47;;;14.80;45.30;;;15.05;49.69;98257.28;5064599;28;20648;-65
2021/04/09 08:26:54;;;;;;;6.90;5.90;;;14.90;45.90;;;15.32;50.09;98250.59;5070847;28;20655;-65
2021/04/09 08:29:23;;;;;;;7.30;6.40;;;15.20;46.50;;;15.58;49.90;98252.69;5054637;28;20606;-65
2021/04/09 08:31:52;;;;;;;6.60;5.90;;;15.40;46.30;;;15.72;49.25;98249.69;5063305;28;20744;-65
2021/04/09 08:34:21;;;;;;;11.10;6.40;;;15.60;45.60;;;15.70;50.26;98249.81;5059678;28;20674;-65
2021/04/09 08:36:52;;;;;;;8.67;6.40;;;15.60;44.80;;;15.82;47.70;98243.50;5066498;28;20641;-65
2021/04/09 08:39:40;;;;;;;7.83;6.70;;;15.70;43.70;;;16.06;51.05;98259.78;5072048;28;20637;-66
2021/04/09 08:42:12;;;;;;;8.00;5.63;;;15.90;46.00;;;16.30;48.21;98245.34;5066580;28;20626;-66
2021/04/09 08:44:40;;;;;;;9.77;5.67;;;16.10;45.50;;;16.12;49.02;98246.91;5069326;28;20661;-66
2021/04/09 08:47:09;;;;;;;9.63;6.47;;;16.00;43.60;;;16.04;49.11;98246.75;5083168;28;20664;-66
2021/04/09 08:49:37;;;;;;;6.53;5.57;;;16.00;45.10;;;16.09;50.54;98246.38;5069670;28;20638;-66
2021/04/09 08:52:09;;;;;;;7.77;5.43;;;16.10;45.60;;;16.11;49.95;98250.50;5066753;28;20653;-66
2021/04/09 08:54:49;;;;;;;11.50;5.57;;;16.10;45.80;;;16.29;49.74;98234.94;5062822;28;20649;-66
2021/04/09 08:57:34;;;;;;;11.60;5.17;;;16.20;45.70;;;16.25;48.29;98236.16;5070368;28;20717;-66
2021/04/09 09:00:12;;;;;;;6.40;5.07;;;16.30;43.30;;;16.19;47.63;98228.78;5064046;28;20649;-66
2021/04/09 09:02:51;;;;;;;5.50;4.70;;;16.20;42.80;;;16.08;48.09;98234.16;5067362;28;20625;-66
2021/04/09 09:05:23;;;;;;;7.07;4.80;;;16.10;43.70;;;15.95;47.24;98235.38;5069221;28;20654;-66
2021/04/09 09:08:02;;;;;;;5.37;4.70;;;16.00;42.80;;;15.97;52.13;98233.47;5067075;28;20634;-66
2021/04/09 09:10:57;;;;;;;7.50;5.77;;;16.00;45.10;;;15.94;50.30;98224.03;5070269;28;20697;-65
2021/04/09 09:13:28;;;;;;;6.90;5.47;;;15.90;44.70;;;16.09;48.60;98228.75;5068173;28;20706;-65
2021/04/09 09:16:00;;;;;;;7.23;4.50;;;16.00;44.20;;;16.22;46.93;98220.63;5071436;28;20972;-66
2021/04/09 09:18:52;;;;;;;5.77;5.13;;;16.10;43.00;;;16.23;47.61;98211.78;5072891;28;20665;-65
2021/04/09 09:21:37;;;;;;;5.73;4.50;;;16.10;42.90;;;16.34;46.65;98214.28;5063977;28;21271;-66
2021/04/09 09:24:23;;;;;;;5.53;4.37;;;16.20;42.30;;;16.57;46.15;98217.34;5065269;28;20634;-66
2021/04/09 09:26:52;;;;;;;6.63;4.37;;;16.40;42.60;;;16.88;46.51;98215.41;5068426;28;20734;-66
2021/04/09 09:29:22;;;;;;;5.20;4.50;;;16.70;41.90;;;17.24;48.52;98211.06;5070380;28;20642;-66
2021/04/09 09:32:02;;;;;;;7.20;4.50;;;17.00;42.60;;;17.56;45.69;98207.09;5067718;28;20638;-66
2021/04/09 09:34:39;;;;;;;6.67;3.90;;;17.30;41.80;;;17.59;45.39;98201.53;5070663;28;20824;-66
2021/04/09 09:37:11;;;;;;;4.33;3.40;;;17.40;40.30;;;17.33;42.10;98204.94;5069325;28;20648;-66
2021/04/09 09:39:47;;;;;;;5.70;3.60;;;17.20;37.20;;;16.89;43.36;98210.00;5065803;28;20680;-66
2021/04/09 09:42:45;;;;;;;4.30;3.40;;;16.80;35.90;;;16.52;43.18;98201.16;5071790;28;20635;-66
2021/04/09 09:45:34;;;;;;;5.60;3.80;;;16.50;36.20;;;16.15;43.20;98198.44;5097366;28;20647;-66
2021/04/09 09:48:15;;;;;;;4.30;3.57;;;16.10;36.10;;;16.24;42.93;98192.41;5068145;28;21177;-66
2021/04/09 09:50:44;;;;;;;9.50;3.87;;;16.10;37.70;;;16.08;41.51;98184.16;5070503;28;21220;-66
2021/04/09 09:53:12;;;;;;;5.93;3.67;;;16.00;34.80;;;15.92;43.37;98188.28;5065906;28;20642;-66
2021/04/09 09:55:42;;;;;;;4.70;3.70;;;15.90;35.90;;;15.84;44.28;98175.78;5070028;28;20626;-65
2021/04/09 09:58:13;;;;;;;5.30;3.90;;;15.80;36.70;;;15.66;42.73;98185.28;5066313;28;20743;-65
2021/04/09 10:00:44;;;;;;;4.67;3.77;;;15.60;36.30;;;15.59;43.35;98181.56;5064105;28;20569;-65
2021/04/09 10:03:23;;;;;;;6.47;4.30;;;15.60;37.40;;;15.40;43.90;98185.06;5082462;28;20622;-65
2021/04/09 10:05:54;;;;;;;8.30;5.20;;;15.40;36.10;;;15.36;43.67;98175.78;5068367;28;20636;-66
2021/04/09 10:08:24;;;;;;;10.43;4.80;;;15.40;36.40;;;15.32;43.50;98169.09;5060501;28;21019;-65
2021/04/09 10:10:55;;;;;;;4.93;4.00;;;15.30;36.90;;;15.51;45.59;98171.84;5066532;28;20723;-65
2021/04/09 10:13:27;;;;;;;5.40;3.70;;;15.40;37.20;;;15.64;44.66;98168.00;5071325;28;20625;-65
2021/04/09 10:16:10;;;;;;;5.63;4.50;;;15.50;38.60;;;15.57;44.42;98166.88;5071055;28;20650;-65
2021/04/09 10:18:47;;;;;;;6.50;4.57;;;15.40;38.70;;;15.55;43.87;98159.09;5066489;28;20795;-66
2021/04/09 10:21:19;;;;;;;5.60;4.40;;;15.40;37.90;;;15.85;44.25;98158.25;5068360;28;20638;-66
2021/04/09 10:23:49;;;;;;;5.67;4.50;;;15.60;39.50;;;16.02;46.80;98162.84;5068803;28;20625;-66
2021/04/09 10:26:24;;;;;;;5.37;4.07;;;15.80;40.80;;;16.15;46.45;98153.72;5071945;28;20672;-66
2021/04/09 10:28:51;;;;;;;7.20;4.47;;;15.90;39.40;;;16.24;44.18;98155.56;5068405;28;20641;-66
2021/04/09 10:31:22;;;;;;;6.50;3.93;;;16.10;39.10;;;16.18;44.67;98153.44;5069927;28;20692;-66
2021/04/09 10:33:52;;;;;;;6.70;4.67;;;16.10;38.00;;;16.29;42.83;98148.06;5071353;28;20913;-66
2021/04/09 10:36:22;;;;;;;7.30;4.43;;;16.20;38.00;;;16.19;44.70;98148.03;5070324;28;20693;-66
2021/04/09 10:38:55;;;;;;;4.80;4.13;;;16.10;37.70;;;16.05;47.96;98143.16;5071367;28;20658;-66
2021/04/09 10:41:29;;;;;;;5.40;4.37;;;16.00;40.30;;;15.96;45.52;98139.69;5071593;28;20626;-66